sensor_id;sensor_type;location;lat;lon;timestamp;P1;durP1;ratioP1;P2;durP2;ratioP2
74689;SDS011;63221;51.860;-2.188;2023-05-21T00:00:45;4.22;;;1.27;;
74689;SDS011;63221;51.860;-2.188;2023-05-21T00:03:11;3.73;;;1.20;;
74689;SDS011;63221;51.860;-2.188;2023-05-21T00:05:38;3.17;;;1.88;;
74689;SDS011;63221;51.860;-2.188;2023-05-21T00:08:04;3.08;;;1.60;;
74689;SDS011;63221;51.860;-2.188;2023-05-21T00:10:30;2.83;;;1.57;;
74689;SDS011;63221;51.860;-2.188;2023-05-21T00:12:56;3.05;;;1.40;;
74689;SDS011;63221;51.860;-2.188;2023-05-21T00:15:21;4.23;;;1.57;;
74689;SDS011;63221;51.860;-2.188;2023-05-21T00:17:46;5.83;;;1.87;;
74689;SDS011;63221;51.860;-2.188;2023-05-21T00:20:12;3.73;;;1.33;;
74689;SDS011;63221;51.860;-2.188;2023-05-21T00:22:37;5.60;;;2.67;;
74689;SDS011;63221;51.860;-2.188;2023-05-21T00:25:04;3.33;;;1.30;;
74689;SDS011;63221;51.860;-2.188;2023-05-21T00:27:30;2.75;;;1.70;;
74689;SDS011;63221;51.860;-2.188;2023-05-21T00:29:56;3.83;;;1.80;;
74689;SDS011;63221;51.860;-2.188;2023-05-21T00:32:21;2.93;;;1.90;;
74689;SDS011;63221;51.860;-2.188;2023-05-21T00:34:46;3.70;;;1.73;;
74689;SDS011;63221;51.860;-2.188;2023-05-21T00:37:12;4.27;;;1.13;;
74689;SDS011;63221;51.860;-2.188;2023-05-21T00:39:39;1.85;;;0.98;;
74689;SDS011;63221;51.860;-2.188;2023-05-21T00:42:05;3.55;;;1.77;;
74689;SDS011;63221;51.860;-2.188;2023-05-21T00:44:30;2.80;;;1.13;;
74689;SDS011;63221;51.860;-2.188;2023-05-21T00:47:00;2.65;;;1.48;;
74689;SDS011;63221;51.860;-2.188;2023-05-21T00:49:26;2.70;;;1.20;;
74689;SDS011;63221;51.860;-2.188;2023-05-21T00:51:52;3.30;;;1.30;;
74689;SDS011;63221;51.860;-2.188;2023-05-21T00:54:18;2.47;;;1.17;;
74689;SDS011;63221;51.860;-2.188;2023-05-21T00:56:44;2.30;;;1.50;;
74689;SDS011;63221;51.860;-2.188;2023-05-21T00:59:10;2.30;;;1.20;;
74689;SDS011;63221;51.860;-2.188;2023-05-21T01:01:36;3.33;;;1.40;;
74689;SDS011;63221;51.860;-2.188;2023-05-21T01:04:03;5.50;;;2.05;;
74689;SDS011;63221;51.860;-2.188;2023-05-21T01:06:28;3.33;;;2.20;;
74689;SDS011;63221;51.860;-2.188;2023-05-21T01:08:54;5.13;;;1.70;;
74689;SDS011;63221;51.860;-2.188;2023-05-21T01:11:20;5.70;;;2.47;;
74689;SDS011;63221;51.860;-2.188;2023-05-21T01:13:57;3.65;;;2.08;;
74689;SDS011;63221;51.860;-2.188;2023-05-21T01:16:22;3.47;;;2.10;;
74689;SDS011;63221;51.860;-2.188;2023-05-21T01:18:48;4.03;;;2.33;;
74689;SDS011;63221;51.860;-2.188;2023-05-21T01:21:15;3.47;;;1.83;;
74689;SDS011;63221;51.860;-2.188;2023-05-21T01:23:41;4.57;;;1.83;;
74689;SDS011;63221;51.860;-2.188;2023-05-21T01:26:06;4.50;;;2.23;;
74689;SDS011;63221;51.860;-2.188;2023-05-21T01:28:32;6.87;;;2.73;;
74689;SDS011;63221;51.860;-2.188;2023-05-21T01:30:58;5.88;;;2.85;;
74689;SDS011;63221;51.860;-2.188;2023-05-21T01:33:28;6.93;;;3.35;;
74689;SDS011;63221;51.860;-2.188;2023-05-21T01:36:01;4.40;;;2.38;;
74689;SDS011;63221;51.860;-2.188;2023-05-21T01:38:30;5.23;;;1.60;;
74689;SDS011;63221;51.860;-2.188;2023-05-21T01:41:06;3.67;;;2.15;;
74689;SDS011;63221;51.860;-2.188;2023-05-21T01:43:34;5.22;;;2.78;;
74689;SDS011;63221;51.860;-2.188;2023-05-21T01:46:02;5.65;;;2.63;;
74689;SDS011;63221;51.860;-2.188;2023-05-21T01:48:29;4.88;;;2.58;;
74689;SDS011;63221;51.860;-2.188;2023-05-21T01:50:56;3.77;;;1.90;;
74689;SDS011;63221;51.860;-2.188;2023-05-21T01:53:24;6.70;;;3.10;;
74689;SDS011;63221;51.860;-2.188;2023-05-21T01:55:50;8.40;;;3.05;;
74689;SDS011;63221;51.860;-2.188;2023-05-21T01:58:16;5.70;;;2.23;;
74689;SDS011;63221;51.860;-2.188;2023-05-21T02:00:42;5.25;;;2.38;;
74689;SDS011;63221;51.860;-2.188;2023-05-21T02:03:09;4.50;;;2.35;;
74689;SDS011;63221;51.860;-2.188;2023-05-21T02:05:35;3.70;;;2.20;;
74689;SDS011;63221;51.860;-2.188;2023-05-21T02:08:00;6.63;;;3.60;;
74689;SDS011;63221;51.860;-2.188;2023-05-21T02:10:26;3.42;;;2.15;;
74689;SDS011;63221;51.860;-2.188;2023-05-21T02:12:51;6.73;;;2.90;;
74689;SDS011;63221;51.860;-2.188;2023-05-21T02:15:16;4.47;;;2.50;;
74689;SDS011;63221;51.860;-2.188;2023-05-21T02:17:43;3.47;;;2.38;;
74689;SDS011;63221;51.860;-2.188;2023-05-21T02:20:12;3.83;;;2.03;;
74689;SDS011;63221;51.860;-2.188;2023-05-21T02:25:04;4.88;;;2.50;;
74689;SDS011;63221;51.860;-2.188;2023-05-21T02:27:31;3.85;;;1.95;;
74689;SDS011;63221;51.860;-2.188;2023-05-21T02:29:59;3.10;;;2.10;;
74689;SDS011;63221;51.860;-2.188;2023-05-21T02:32:24;4.37;;;1.87;;
74689;SDS011;63221;51.860;-2.188;2023-05-21T02:34:50;5.10;;;1.80;;
74689;SDS011;63221;51.860;-2.188;2023-05-21T02:37:15;2.77;;;1.83;;
74689;SDS011;63221;51.860;-2.188;2023-05-21T02:39:41;3.50;;;2.00;;
74689;SDS011;63221;51.860;-2.188;2023-05-21T02:42:07;3.72;;;1.52;;
74689;SDS011;63221;51.860;-2.188;2023-05-21T02:44:32;5.57;;;2.63;;
74689;SDS011;63221;51.860;-2.188;2023-05-21T02:46:57;4.77;;;2.57;;
74689;SDS011;63221;51.860;-2.188;2023-05-21T02:49:23;6.07;;;2.53;;
74689;SDS011;63221;51.860;-2.188;2023-05-21T02:51:48;4.53;;;2.50;;
74689;SDS011;63221;51.860;-2.188;2023-05-21T02:54:14;4.18;;;2.00;;
74689;SDS011;63221;51.860;-2.188;2023-05-21T02:56:39;5.63;;;2.30;;
74689;SDS011;63221;51.860;-2.188;2023-05-21T02:59:05;6.40;;;2.70;;
74689;SDS011;63221;51.860;-2.188;2023-05-21T03:01:30;3.25;;;1.60;;
74689;SDS011;63221;51.860;-2.188;2023-05-21T03:03:56;6.63;;;3.43;;
74689;SDS011;63221;51.860;-2.188;2023-05-21T03:06:21;4.85;;;2.38;;
74689;SDS011;63221;51.860;-2.188;2023-05-21T03:08:47;3.80;;;2.00;;
74689;SDS011;63221;51.860;-2.188;2023-05-21T03:11:12;5.97;;;2.17;;
74689;SDS011;63221;51.860;-2.188;2023-05-21T03:13:37;5.40;;;2.00;;
74689;SDS011;63221;51.860;-2.188;2023-05-21T03:16:03;4.13;;;2.00;;
74689;SDS011;63221;51.860;-2.188;2023-05-21T03:18:29;5.70;;;2.17;;
74689;SDS011;63221;51.860;-2.188;2023-05-21T03:20:54;4.07;;;2.33;;
74689;SDS011;63221;51.860;-2.188;2023-05-21T03:23:22;4.60;;;2.05;;
74689;SDS011;63221;51.860;-2.188;2023-05-21T03:25:48;6.77;;;2.30;;
74689;SDS011;63221;51.860;-2.188;2023-05-21T03:28:14;4.22;;;2.35;;
74689;SDS011;63221;51.860;-2.188;2023-05-21T03:30:41;7.53;;;2.47;;
74689;SDS011;63221;51.860;-2.188;2023-05-21T03:33:10;6.32;;;2.47;;
74689;SDS011;63221;51.860;-2.188;2023-05-21T03:35:37;4.75;;;2.53;;
74689;SDS011;63221;51.860;-2.188;2023-05-21T03:38:03;6.00;;;2.20;;
74689;SDS011;63221;51.860;-2.188;2023-05-21T03:40:28;3.83;;;2.00;;
74689;SDS011;63221;51.860;-2.188;2023-05-21T03:42:54;3.70;;;2.00;;
74689;SDS011;63221;51.860;-2.188;2023-05-21T03:45:19;4.70;;;2.13;;
74689;SDS011;63221;51.860;-2.188;2023-05-21T03:47:45;4.65;;;2.03;;
74689;SDS011;63221;51.860;-2.188;2023-05-21T03:50:10;3.70;;;2.53;;
74689;SDS011;63221;51.860;-2.188;2023-05-21T03:52:36;4.72;;;1.85;;
74689;SDS011;63221;51.860;-2.188;2023-05-21T03:55:01;4.73;;;2.30;;
74689;SDS011;63221;51.860;-2.188;2023-05-21T03:57:27;4.63;;;3.23;;
74689;SDS011;63221;51.860;-2.188;2023-05-21T03:59:52;6.27;;;2.10;;
74689;SDS011;63221;51.860;-2.188;2023-05-21T04:02:18;4.32;;;2.45;;
74689;SDS011;63221;51.860;-2.188;2023-05-21T04:04:43;4.70;;;1.83;;
74689;SDS011;63221;51.860;-2.188;2023-05-21T04:07:09;5.88;;;2.38;;
74689;SDS011;63221;51.860;-2.188;2023-05-21T04:09:39;5.57;;;2.60;;
74689;SDS011;63221;51.860;-2.188;2023-05-21T04:12:05;5.72;;;2.90;;
74689;SDS011;63221;51.860;-2.188;2023-05-21T04:14:31;4.85;;;2.95;;
74689;SDS011;63221;51.860;-2.188;2023-05-21T04:16:58;5.05;;;1.85;;
74689;SDS011;63221;51.860;-2.188;2023-05-21T04:19:24;4.97;;;2.40;;
74689;SDS011;63221;51.860;-2.188;2023-05-21T04:21:49;6.78;;;2.72;;
74689;SDS011;63221;51.860;-2.188;2023-05-21T04:24:15;3.93;;;2.23;;
74689;SDS011;63221;51.860;-2.188;2023-05-21T04:26:40;4.73;;;2.47;;
74689;SDS011;63221;51.860;-2.188;2023-05-21T04:29:06;4.20;;;2.33;;
74689;SDS011;63221;51.860;-2.188;2023-05-21T04:31:32;4.63;;;2.83;;
74689;SDS011;63221;51.860;-2.188;2023-05-21T04:33:57;4.78;;;2.40;;
74689;SDS011;63221;51.860;-2.188;2023-05-21T04:36:23;5.90;;;3.57;;
74689;SDS011;63221;51.860;-2.188;2023-05-21T04:38:48;4.80;;;2.57;;
74689;SDS011;63221;51.860;-2.188;2023-05-21T04:41:14;4.23;;;2.47;;
74689;SDS011;63221;51.860;-2.188;2023-05-21T04:43:42;5.88;;;3.25;;
74689;SDS011;63221;51.860;-2.188;2023-05-21T04:46:08;6.63;;;2.53;;
74689;SDS011;63221;51.860;-2.188;2023-05-21T04:48:33;5.87;;;3.00;;
74689;SDS011;63221;51.860;-2.188;2023-05-21T04:50:59;4.25;;;2.67;;
74689;SDS011;63221;51.860;-2.188;2023-05-21T04:53:24;7.23;;;3.43;;
74689;SDS011;63221;51.860;-2.188;2023-05-21T04:55:50;6.20;;;2.50;;
74689;SDS011;63221;51.860;-2.188;2023-05-21T04:58:15;7.00;;;3.03;;
74689;SDS011;63221;51.860;-2.188;2023-05-21T05:00:43;4.72;;;2.50;;
74689;SDS011;63221;51.860;-2.188;2023-05-21T05:03:10;5.70;;;2.53;;
74689;SDS011;63221;51.860;-2.188;2023-05-21T05:05:36;5.35;;;2.70;;
74689;SDS011;63221;51.860;-2.188;2023-05-21T05:08:01;7.67;;;3.17;;
74689;SDS011;63221;51.860;-2.188;2023-05-21T05:10:28;3.70;;;2.85;;
74689;SDS011;63221;51.860;-2.188;2023-05-21T05:12:53;8.53;;;3.17;;
74689;SDS011;63221;51.860;-2.188;2023-05-21T05:15:18;10.17;;;3.87;;
74689;SDS011;63221;51.860;-2.188;2023-05-21T05:17:44;4.27;;;2.47;;
74689;SDS011;63221;51.860;-2.188;2023-05-21T05:20:12;4.43;;;2.63;;
74689;SDS011;63221;51.860;-2.188;2023-05-21T05:22:37;4.97;;;3.65;;
74689;SDS011;63221;51.860;-2.188;2023-05-21T05:25:03;4.97;;;2.80;;
74689;SDS011;63221;51.860;-2.188;2023-05-21T05:27:29;5.32;;;3.28;;
74689;SDS011;63221;51.860;-2.188;2023-05-21T05:29:54;6.67;;;3.17;;
74689;SDS011;63221;51.860;-2.188;2023-05-21T05:32:20;6.00;;;3.03;;
74689;SDS011;63221;51.860;-2.188;2023-05-21T05:34:45;6.50;;;3.20;;
74689;SDS011;63221;51.860;-2.188;2023-05-21T05:37:11;5.83;;;2.83;;
74689;SDS011;63221;51.860;-2.188;2023-05-21T05:39:36;7.10;;;3.03;;
74689;SDS011;63221;51.860;-2.188;2023-05-21T05:42:02;7.30;;;3.17;;
74689;SDS011;63221;51.860;-2.188;2023-05-21T05:44:27;6.63;;;3.50;;
74689;SDS011;63221;51.860;-2.188;2023-05-21T05:46:53;5.60;;;3.10;;
74689;SDS011;63221;51.860;-2.188;2023-05-21T05:49:18;5.90;;;2.63;;
74689;SDS011;63221;51.860;-2.188;2023-05-21T05:51:43;5.15;;;3.38;;
74689;SDS011;63221;51.860;-2.188;2023-05-21T05:54:09;6.40;;;3.03;;
74689;SDS011;63221;51.860;-2.188;2023-05-21T05:56:35;4.90;;;3.37;;
74689;SDS011;63221;51.860;-2.188;2023-05-21T05:59:00;6.23;;;3.00;;
74689;SDS011;63221;51.860;-2.188;2023-05-21T06:01:25;5.53;;;3.13;;
74689;SDS011;63221;51.860;-2.188;2023-05-21T06:03:52;10.50;;;4.27;;
74689;SDS011;63221;51.860;-2.188;2023-05-21T06:06:17;6.35;;;3.95;;
74689;SDS011;63221;51.860;-2.188;2023-05-21T06:08:43;6.53;;;4.33;;
74689;SDS011;63221;51.860;-2.188;2023-05-21T06:11:08;8.15;;;3.42;;
74689;SDS011;63221;51.860;-2.188;2023-05-21T06:13:35;7.47;;;3.10;;
74689;SDS011;63221;51.860;-2.188;2023-05-21T06:16:00;6.35;;;2.95;;
74689;SDS011;63221;51.860;-2.188;2023-05-21T06:18:26;7.50;;;3.30;;
74689;SDS011;63221;51.860;-2.188;2023-05-21T06:20:51;8.33;;;4.60;;
74689;SDS011;63221;51.860;-2.188;2023-05-21T06:23:17;6.47;;;3.85;;
74689;SDS011;63221;51.860;-2.188;2023-05-21T06:25:42;6.97;;;3.93;;
74689;SDS011;63221;51.860;-2.188;2023-05-21T06:28:08;8.30;;;4.10;;
74689;SDS011;63221;51.860;-2.188;2023-05-21T06:30:33;7.67;;;3.97;;
74689;SDS011;63221;51.860;-2.188;2023-05-21T06:32:59;7.07;;;3.73;;
74689;SDS011;63221;51.860;-2.188;2023-05-21T06:35:24;8.43;;;3.67;;
74689;SDS011;63221;51.860;-2.188;2023-05-21T06:37:50;5.87;;;3.83;;
74689;SDS011;63221;51.860;-2.188;2023-05-21T06:40:15;8.53;;;3.20;;
74689;SDS011;63221;51.860;-2.188;2023-05-21T06:42:40;6.38;;;3.95;;
74689;SDS011;63221;51.860;-2.188;2023-05-21T06:45:06;6.10;;;3.40;;
74689;SDS011;63221;51.860;-2.188;2023-05-21T06:47:32;7.17;;;3.70;;
74689;SDS011;63221;51.860;-2.188;2023-05-21T06:49:57;6.63;;;3.05;;
74689;SDS011;63221;51.860;-2.188;2023-05-21T06:52:23;6.27;;;3.87;;
74689;SDS011;63221;51.860;-2.188;2023-05-21T06:54:50;7.18;;;3.97;;
74689;SDS011;63221;51.860;-2.188;2023-05-21T06:57:16;8.02;;;3.38;;
74689;SDS011;63221;51.860;-2.188;2023-05-21T06:59:41;7.40;;;4.20;;
74689;SDS011;63221;51.860;-2.188;2023-05-21T07:02:07;8.50;;;4.03;;
74689;SDS011;63221;51.860;-2.188;2023-05-21T07:04:32;7.87;;;3.60;;
74689;SDS011;63221;51.860;-2.188;2023-05-21T07:06:59;9.63;;;3.97;;
74689;SDS011;63221;51.860;-2.188;2023-05-21T07:09:25;9.27;;;4.15;;
74689;SDS011;63221;51.860;-2.188;2023-05-21T07:11:50;8.10;;;3.87;;
74689;SDS011;63221;51.860;-2.188;2023-05-21T07:14:17;9.88;;;4.30;;
74689;SDS011;63221;51.860;-2.188;2023-05-21T07:16:42;8.87;;;4.27;;
74689;SDS011;63221;51.860;-2.188;2023-05-21T07:19:08;6.63;;;3.50;;
74689;SDS011;63221;51.860;-2.188;2023-05-21T07:21:33;6.53;;;3.53;;
74689;SDS011;63221;51.860;-2.188;2023-05-21T07:23:59;7.63;;;3.27;;
74689;SDS011;63221;51.860;-2.188;2023-05-21T07:26:24;8.93;;;4.60;;
74689;SDS011;63221;51.860;-2.188;2023-05-21T07:28:50;7.70;;;3.78;;
74689;SDS011;63221;51.860;-2.188;2023-05-21T07:31:16;10.73;;;3.30;;
74689;SDS011;63221;51.860;-2.188;2023-05-21T07:33:41;8.52;;;3.72;;
74689;SDS011;63221;51.860;-2.188;2023-05-21T07:36:06;6.80;;;4.67;;
74689;SDS011;63221;51.860;-2.188;2023-05-21T07:38:32;9.47;;;4.50;;
74689;SDS011;63221;51.860;-2.188;2023-05-21T07:40:57;9.30;;;3.77;;
74689;SDS011;63221;51.860;-2.188;2023-05-21T07:43:23;6.30;;;3.60;;
74689;SDS011;63221;51.860;-2.188;2023-05-21T07:45:48;8.90;;;3.30;;
74689;SDS011;63221;51.860;-2.188;2023-05-21T07:48:13;6.70;;;3.77;;
74689;SDS011;63221;51.860;-2.188;2023-05-21T07:50:39;8.07;;;4.10;;
74689;SDS011;63221;51.860;-2.188;2023-05-21T07:53:04;6.37;;;3.23;;
74689;SDS011;63221;51.860;-2.188;2023-05-21T07:55:30;10.10;;;3.47;;
74689;SDS011;63221;51.860;-2.188;2023-05-21T07:57:55;8.87;;;3.50;;
74689;SDS011;63221;51.860;-2.188;2023-05-21T08:00:22;9.57;;;3.50;;
74689;SDS011;63221;51.860;-2.188;2023-05-21T08:02:48;8.38;;;3.60;;
74689;SDS011;63221;51.860;-2.188;2023-05-21T08:05:13;9.03;;;4.53;;
74689;SDS011;63221;51.860;-2.188;2023-05-21T08:07:40;8.05;;;4.03;;
74689;SDS011;63221;51.860;-2.188;2023-05-21T08:10:06;10.35;;;3.45;;
74689;SDS011;63221;51.860;-2.188;2023-05-21T08:12:32;6.90;;;4.07;;
74689;SDS011;63221;51.860;-2.188;2023-05-21T08:14:58;6.70;;;3.45;;
74689;SDS011;63221;51.860;-2.188;2023-05-21T08:17:23;8.27;;;4.03;;
74689;SDS011;63221;51.860;-2.188;2023-05-21T08:19:49;7.20;;;2.70;;
74689;SDS011;63221;51.860;-2.188;2023-05-21T08:22:14;7.87;;;3.57;;
74689;SDS011;63221;51.860;-2.188;2023-05-21T08:24:40;7.20;;;3.87;;
74689;SDS011;63221;51.860;-2.188;2023-05-21T08:27:05;7.50;;;4.43;;
74689;SDS011;63221;51.860;-2.188;2023-05-21T08:29:31;7.38;;;3.55;;
74689;SDS011;63221;51.860;-2.188;2023-05-21T08:31:57;5.03;;;2.78;;
74689;SDS011;63221;51.860;-2.188;2023-05-21T08:34:22;8.23;;;2.77;;
74689;SDS011;63221;51.860;-2.188;2023-05-21T08:36:48;7.70;;;3.60;;
74689;SDS011;63221;51.860;-2.188;2023-05-21T08:39:14;6.65;;;3.10;;
74689;SDS011;63221;51.860;-2.188;2023-05-21T08:41:39;6.53;;;3.37;;
74689;SDS011;63221;51.860;-2.188;2023-05-21T08:44:07;7.03;;;3.40;;
74689;SDS011;63221;51.860;-2.188;2023-05-21T08:46:36;5.22;;;3.90;;
74689;SDS011;63221;51.860;-2.188;2023-05-21T08:49:05;6.97;;;2.97;;
74689;SDS011;63221;51.860;-2.188;2023-05-21T08:51:34;5.13;;;2.78;;
74689;SDS011;63221;51.860;-2.188;2023-05-21T08:54:00;7.53;;;2.83;;
74689;SDS011;63221;51.860;-2.188;2023-05-21T08:56:25;6.15;;;2.70;;
74689;SDS011;63221;51.860;-2.188;2023-05-21T08:58:51;6.80;;;3.50;;
74689;SDS011;63221;51.860;-2.188;2023-05-21T09:01:17;6.55;;;3.03;;
74689;SDS011;63221;51.860;-2.188;2023-05-21T09:03:43;6.75;;;3.00;;
74689;SDS011;63221;51.860;-2.188;2023-05-21T09:06:10;6.20;;;3.10;;
74689;SDS011;63221;51.860;-2.188;2023-05-21T09:08:38;6.63;;;3.30;;
74689;SDS011;63221;51.860;-2.188;2023-05-21T09:11:07;4.43;;;2.57;;
74689;SDS011;63221;51.860;-2.188;2023-05-21T09:13:33;5.30;;;2.78;;
74689;SDS011;63221;51.860;-2.188;2023-05-21T09:15:59;7.87;;;3.17;;
74689;SDS011;63221;51.860;-2.188;2023-05-21T09:18:25;4.97;;;3.05;;
74689;SDS011;63221;51.860;-2.188;2023-05-21T09:20:53;7.38;;;4.05;;
74689;SDS011;63221;51.860;-2.188;2023-05-21T09:23:20;6.43;;;2.88;;
74689;SDS011;63221;51.860;-2.188;2023-05-21T09:25:46;5.50;;;2.40;;
74689;SDS011;63221;51.860;-2.188;2023-05-21T09:28:13;4.63;;;2.72;;
74689;SDS011;63221;51.860;-2.188;2023-05-21T09:30:43;5.88;;;3.05;;
74689;SDS011;63221;51.860;-2.188;2023-05-21T09:33:09;5.97;;;3.33;;
74689;SDS011;63221;51.860;-2.188;2023-05-21T09:35:35;8.75;;;3.20;;
74689;SDS011;63221;51.860;-2.188;2023-05-21T09:38:02;7.00;;;2.90;;
74689;SDS011;63221;51.860;-2.188;2023-05-21T09:40:33;4.20;;;2.03;;
74689;SDS011;63221;51.860;-2.188;2023-05-21T09:42:59;3.85;;;2.22;;
74689;SDS011;63221;51.860;-2.188;2023-05-21T09:45:25;7.07;;;3.07;;
74689;SDS011;63221;51.860;-2.188;2023-05-21T09:47:52;5.25;;;2.08;;
74689;SDS011;63221;51.860;-2.188;2023-05-21T09:50:19;3.77;;;1.67;;
74689;SDS011;63221;51.860;-2.188;2023-05-21T09:52:46;5.60;;;2.38;;
74689;SDS011;63221;51.860;-2.188;2023-05-21T09:55:14;5.93;;;3.35;;
74689;SDS011;63221;51.860;-2.188;2023-05-21T09:57:41;4.80;;;2.47;;
74689;SDS011;63221;51.860;-2.188;2023-05-21T10:00:07;5.75;;;2.35;;
74689;SDS011;63221;51.860;-2.188;2023-05-21T10:02:34;4.33;;;2.43;;
74689;SDS011;63221;51.860;-2.188;2023-05-21T10:05:01;3.03;;;2.30;;
74689;SDS011;63221;51.860;-2.188;2023-05-21T10:07:29;4.60;;;2.75;;
74689;SDS011;63221;51.860;-2.188;2023-05-21T10:09:56;3.20;;;2.13;;
74689;SDS011;63221;51.860;-2.188;2023-05-21T10:12:22;2.70;;;1.77;;
74689;SDS011;63221;51.860;-2.188;2023-05-21T10:14:53;2.75;;;1.92;;
74689;SDS011;63221;51.860;-2.188;2023-05-21T10:17:26;6.05;;;2.42;;
74689;SDS011;63221;51.860;-2.188;2023-05-21T10:19:52;4.82;;;2.22;;
74689;SDS011;63221;51.860;-2.188;2023-05-21T10:22:21;5.82;;;3.08;;
74689;SDS011;63221;51.860;-2.188;2023-05-21T10:24:51;6.57;;;2.23;;
74689;SDS011;63221;51.860;-2.188;2023-05-21T10:27:16;4.78;;;3.15;;
74689;SDS011;63221;51.860;-2.188;2023-05-21T10:29:42;6.85;;;1.98;;
74689;SDS011;63221;51.860;-2.188;2023-05-21T10:32:09;5.95;;;2.45;;
74689;SDS011;63221;51.860;-2.188;2023-05-21T10:34:36;6.40;;;2.83;;
74689;SDS011;63221;51.860;-2.188;2023-05-21T10:37:02;4.68;;;2.45;;
74689;SDS011;63221;51.860;-2.188;2023-05-21T10:39:28;3.10;;;2.15;;
74689;SDS011;63221;51.860;-2.188;2023-05-21T10:55:54;4.65;;;2.05;;
74689;SDS011;63221;51.860;-2.188;2023-05-21T10:58:50;3.30;;;1.50;;
74689;SDS011;63221;51.860;-2.188;2023-05-21T11:01:18;4.60;;;1.95;;
74689;SDS011;63221;51.860;-2.188;2023-05-21T11:03:47;4.75;;;1.85;;
74689;SDS011;63221;51.860;-2.188;2023-05-21T11:06:20;3.17;;;1.50;;
74689;SDS011;63221;51.860;-2.188;2023-05-21T11:08:47;2.55;;;1.65;;
74689;SDS011;63221;51.860;-2.188;2023-05-21T11:11:12;4.43;;;1.80;;
74689;SDS011;63221;51.860;-2.188;2023-05-21T11:17:35;2.78;;;1.73;;
74689;SDS011;63221;51.860;-2.188;2023-05-21T11:20:03;5.65;;;2.38;;
74689;SDS011;63221;51.860;-2.188;2023-05-21T11:22:32;2.55;;;1.70;;
74689;SDS011;63221;51.860;-2.188;2023-05-21T11:25:00;3.73;;;2.10;;
74689;SDS011;63221;51.860;-2.188;2023-05-21T11:32:30;3.65;;;1.42;;
74689;SDS011;63221;51.860;-2.188;2023-05-21T11:34:58;3.70;;;2.50;;
74689;SDS011;63221;51.860;-2.188;2023-05-21T11:37:27;4.63;;;1.70;;
74689;SDS011;63221;51.860;-2.188;2023-05-21T11:39:53;2.75;;;1.65;;
74689;SDS011;63221;51.860;-2.188;2023-05-21T11:42:32;4.33;;;1.60;;
74689;SDS011;63221;51.860;-2.188;2023-05-21T11:44:59;4.15;;;1.92;;
74689;SDS011;63221;51.860;-2.188;2023-05-21T11:47:26;3.67;;;2.33;;
74689;SDS011;63221;51.860;-2.188;2023-05-21T11:49:52;3.30;;;2.00;;
74689;SDS011;63221;51.860;-2.188;2023-05-21T11:52:18;4.07;;;2.15;;
74689;SDS011;63221;51.860;-2.188;2023-05-21T11:57:12;4.13;;;1.90;;
74689;SDS011;63221;51.860;-2.188;2023-05-21T11:59:42;4.20;;;2.00;;
74689;SDS011;63221;51.860;-2.188;2023-05-21T12:02:14;2.53;;;1.80;;
74689;SDS011;63221;51.860;-2.188;2023-05-21T12:04:44;4.50;;;1.97;;
74689;SDS011;63221;51.860;-2.188;2023-05-21T12:07:10;3.72;;;1.40;;
74689;SDS011;63221;51.860;-2.188;2023-05-21T12:09:40;3.38;;;1.83;;
74689;SDS011;63221;51.860;-2.188;2023-05-21T12:12:07;2.60;;;1.50;;
74689;SDS011;63221;51.860;-2.188;2023-05-21T12:14:34;2.67;;;1.67;;
74689;SDS011;63221;51.860;-2.188;2023-05-21T12:17:00;2.90;;;1.70;;
74689;SDS011;63221;51.860;-2.188;2023-05-21T12:19:33;2.67;;;1.38;;
74689;SDS011;63221;51.860;-2.188;2023-05-21T12:21:59;5.28;;;1.85;;
74689;SDS011;63221;51.860;-2.188;2023-05-21T12:24:29;2.08;;;1.30;;
74689;SDS011;63221;51.860;-2.188;2023-05-21T12:26:55;2.67;;;1.25;;
74689;SDS011;63221;51.860;-2.188;2023-05-21T12:29:24;1.93;;;0.90;;
74689;SDS011;63221;51.860;-2.188;2023-05-21T12:31:50;4.00;;;2.00;;
74689;SDS011;63221;51.860;-2.188;2023-05-21T12:34:16;4.23;;;1.73;;
74689;SDS011;63221;51.860;-2.188;2023-05-21T12:37:01;3.95;;;1.73;;
74689;SDS011;63221;51.860;-2.188;2023-05-21T12:39:26;3.47;;;1.70;;
74689;SDS011;63221;51.860;-2.188;2023-05-21T12:41:54;4.15;;;2.28;;
74689;SDS011;63221;51.860;-2.188;2023-05-21T12:44:19;3.55;;;2.00;;
74689;SDS011;63221;51.860;-2.188;2023-05-21T12:46:45;3.33;;;2.13;;
74689;SDS011;63221;51.860;-2.188;2023-05-21T12:49:29;2.73;;;1.30;;
74689;SDS011;63221;51.860;-2.188;2023-05-21T12:51:55;3.22;;;2.05;;
74689;SDS011;63221;51.860;-2.188;2023-05-21T12:54:26;3.43;;;1.60;;
74689;SDS011;63221;51.860;-2.188;2023-05-21T12:56:55;3.30;;;2.42;;
74689;SDS011;63221;51.860;-2.188;2023-05-21T12:59:20;4.03;;;3.73;;
74689;SDS011;63221;51.860;-2.188;2023-05-21T13:01:46;4.90;;;2.00;;
74689;SDS011;63221;51.860;-2.188;2023-05-21T13:04:12;3.65;;;1.48;;
74689;SDS011;63221;51.860;-2.188;2023-05-21T13:06:41;3.03;;;1.60;;
74689;SDS011;63221;51.860;-2.188;2023-05-21T13:09:07;7.32;;;2.63;;
74689;SDS011;63221;51.860;-2.188;2023-05-21T13:11:32;4.07;;;1.67;;
74689;SDS011;63221;51.860;-2.188;2023-05-21T13:13:58;10.98;;;6.13;;
74689;SDS011;63221;51.860;-2.188;2023-05-21T13:16:23;8.50;;;4.93;;
74689;SDS011;63221;51.860;-2.188;2023-05-21T13:18:49;14.70;;;11.57;;
74689;SDS011;63221;51.860;-2.188;2023-05-21T13:21:14;21.03;;;13.00;;
74689;SDS011;63221;51.860;-2.188;2023-05-21T13:23:40;4.10;;;3.10;;
74689;SDS011;63221;51.860;-2.188;2023-05-21T13:26:05;5.80;;;2.47;;
74689;SDS011;63221;51.860;-2.188;2023-05-21T13:28:30;4.77;;;2.03;;
74689;SDS011;63221;51.860;-2.188;2023-05-21T13:30:56;7.27;;;3.30;;
74689;SDS011;63221;51.860;-2.188;2023-05-21T13:33:21;5.07;;;2.47;;
74689;SDS011;63221;51.860;-2.188;2023-05-21T13:35:47;4.53;;;1.60;;
74689;SDS011;63221;51.860;-2.188;2023-05-21T13:38:15;2.78;;;1.48;;
74689;SDS011;63221;51.860;-2.188;2023-05-21T13:40:41;4.60;;;2.57;;
74689;SDS011;63221;51.860;-2.188;2023-05-21T13:43:06;4.63;;;2.38;;
74689;SDS011;63221;51.860;-2.188;2023-05-21T13:45:31;3.47;;;2.10;;
74689;SDS011;63221;51.860;-2.188;2023-05-21T13:47:57;3.33;;;2.55;;
74689;SDS011;63221;51.860;-2.188;2023-05-21T13:50:23;6.63;;;3.13;;
74689;SDS011;63221;51.860;-2.188;2023-05-21T13:52:49;5.00;;;2.38;;
74689;SDS011;63221;51.860;-2.188;2023-05-21T13:55:15;3.30;;;2.30;;
74689;SDS011;63221;51.860;-2.188;2023-05-21T13:57:40;3.60;;;2.30;;
74689;SDS011;63221;51.860;-2.188;2023-05-21T14:00:06;4.97;;;2.07;;
74689;SDS011;63221;51.860;-2.188;2023-05-21T14:02:38;3.03;;;1.90;;
74689;SDS011;63221;51.860;-2.188;2023-05-21T14:05:04;3.83;;;1.88;;
74689;SDS011;63221;51.860;-2.188;2023-05-21T14:07:30;3.73;;;2.43;;
74689;SDS011;63221;51.860;-2.188;2023-05-21T14:09:55;3.53;;;2.10;;
74689;SDS011;63221;51.860;-2.188;2023-05-21T14:12:21;3.83;;;2.07;;
74689;SDS011;63221;51.860;-2.188;2023-05-21T14:14:46;3.83;;;1.63;;
74689;SDS011;63221;51.860;-2.188;2023-05-21T14:17:13;4.43;;;1.92;;
74689;SDS011;63221;51.860;-2.188;2023-05-21T14:19:39;3.53;;;2.27;;
74689;SDS011;63221;51.860;-2.188;2023-05-21T14:22:05;2.97;;;1.48;;
74689;SDS011;63221;51.860;-2.188;2023-05-21T14:24:30;3.10;;;2.00;;
74689;SDS011;63221;51.860;-2.188;2023-05-21T14:26:56;3.60;;;1.88;;
74689;SDS011;63221;51.860;-2.188;2023-05-21T14:29:21;6.00;;;2.73;;
74689;SDS011;63221;51.860;-2.188;2023-05-21T14:31:46;2.97;;;2.13;;
74689;SDS011;63221;51.860;-2.188;2023-05-21T14:34:12;4.77;;;2.27;;
74689;SDS011;63221;51.860;-2.188;2023-05-21T14:36:37;2.70;;;1.70;;
74689;SDS011;63221;51.860;-2.188;2023-05-21T14:39:03;4.30;;;1.97;;
74689;SDS011;63221;51.860;-2.188;2023-05-21T14:41:28;5.17;;;2.63;;
74689;SDS011;63221;51.860;-2.188;2023-05-21T14:43:54;4.35;;;1.85;;
74689;SDS011;63221;51.860;-2.188;2023-05-21T14:46:19;4.33;;;2.53;;
74689;SDS011;63221;51.860;-2.188;2023-05-21T14:48:45;4.90;;;2.50;;
74689;SDS011;63221;51.860;-2.188;2023-05-21T14:51:11;2.97;;;1.93;;
74689;SDS011;63221;51.860;-2.188;2023-05-21T14:53:40;4.47;;;2.13;;
74689;SDS011;63221;51.860;-2.188;2023-05-21T14:56:05;4.17;;;2.13;;